Time;durP1;ratioP1;P1;durP2;ratioP2;P2;SDS_P1;SDS_P2;PMS_P1;PMS_P2;Temp;Humidity;BMP_temperature;BMP_pressure;BME280_temperature;BME280_humidity;BME280_pressure;Samples;Min_cycle;Max_cycle;Signal;HPM_P1;HPM_P2
2022/05/25 00:00:38;;;;;;;;;;;;;;;;;;5122666;28;20023;-66
2022/05/25 00:03:04;;;;;;;;;;;;;;;;;;5128058;28;19941;-66
2022/05/25 00:05:30;;;;;;;;;;;;;;;;;;5128742;28;19969;-66
2022/05/25 00:07:56;;;;;;;;;;;;;;;;;;5129021;28;19919;-66
2022/05/25 00:10:22;;;;;;;;;;;;;;;;;;5128659;28;19921;-66
2022/05/25 00:12:48;;;;;;;;;;;;;;;;;;5110371;28;19927;-67
2022/05/25 00:15:14;;;;;;;;;;;;;;;;;;5110542;28;19930;-66
2022/05/25 00:17:40;;;;;;;;;;;;;;;;;;5109429;28;20482;-66
2022/05/25 00:20:06;;;;;;;;;;;;;;;;;;5128425;28;19942;-67
2022/05/25 00:22:32;;;;;;;;;;;;;;;;;;5128688;28;20014;-65
2022/05/25 00:24:58;;;;;;;;;;;;;;;;;;5128523;28;19926;-66
2022/05/25 00:27:24;;;;;;;;;;;;;;;;;;5128247;28;19926;-65
2022/05/25 00:29:50;;;;;;;;;;;;;;;;;;5110193;28;19920;-66
2022/05/25 00:32:16;;;;;;;;;;;;;;;;;;5128548;28;19920;-66
2022/05/25 00:34:42;;;;;;;;;;;;;;;;;;5128179;28;19920;-66
2022/05/25 00:37:08;;;;;;;;;;;;;;;;;;5126963;28;19942;-66
2022/05/25 00:39:34;;;;;;;;;;;;;;;;;;5128229;28;19919;-67
2022/05/25 00:42:00;;;;;;;;;;;;;;;;;;5128199;28;19920;-66
2022/05/25 00:44:25;;;;;;;;;;;;;;;;;;5128151;28;19926;-65
2022/05/25 00:46:51;;;;;;;;;;;;;;;;;;5128290;28;19923;-66
2022/05/25 00:49:17;;;;;;;;;;;;;;;;;;5128120;28;19923;-66
2022/05/25 00:51:43;;;;;;;;;;;;;;;;;;5128047;28;19920;-65
2022/05/25 00:54:09;;;;;;;;;;;;;;;;;;5113149;28;19942;-66
2022/05/25 00:56:35;;;;;;;;;;;;;;;;;;5107086;28;20125;-65
2022/05/25 00:59:01;;;;;;;;;;;;;;;;;;5107524;28;20375;-66
2022/05/25 01:01:27;;;;;;;;;;;;;;;;;;5107501;28;19920;-66
2022/05/25 01:03:53;;;;;;;;;;;;;;;;;;5107045;28;20422;-66
2022/05/25 01:06:19;;;;;;;;;;;;;;;;;;5107236;28;19920;-66
2022/05/25 01:08:45;;;;;;;;;;;;;;;;;;5107261;28;19921;-66
2022/05/25 01:11:11;;;;;;;;;;;;;;;;;;5116520;28;19968;-66
2022/05/25 01:13:37;;;;;;;;;;;;;;;;;;5127006;28;19951;-66
2022/05/25 01:16:03;;;;;;;;;;;;;;;;;;5123328;28;19920;-66
2022/05/25 01:18:29;;;;;;;;;;;;;;;;;;5127515;28;20298;-66
2022/05/25 01:20:55;;;;;;;;;;;;;;;;;;5127401;28;19955;-66
2022/05/25 01:23:21;;;;;;;;;;;;;;;;;;5127327;28;19977;-66
2022/05/25 01:25:47;;;;;;;;;;;;;;;;;;5112768;28;19920;-65
2022/05/25 01:28:13;;;;;;;;;;;;;;;;;;5086764;28;19920;-65
2022/05/25 01:30:39;;;;;;;;;;;;;;;;;;5086494;28;19920;-65
2022/05/25 01:33:05;;;;;;;;;;;;;;;;;;5086461;28;19920;-65
2022/05/25 01:35:31;;;;;;;;;;;;;;;;;;5068507;28;19985;-65
2022/05/25 01:37:57;;;;;;;;;;;;;;;;;;5086540;28;19927;-66
2022/05/25 01:40:23;;;;;;;;;;;;;;;;;;5086148;28;19941;-65
2022/05/25 01:42:49;;;;;;;;;;;;;;;;;;5106416;28;19926;-65
2022/05/25 01:45:15;;;;;;;;;;;;;;;;;;5127003;28;19920;-66
2022/05/25 01:47:41;;;;;;;;;;;;;;;;;;5126931;28;19941;-66
2022/05/25 01:50:06;;;;;;;;;;;;;;;;;;5126779;28;19919;-65
2022/05/25 01:52:32;;;;;;;;;;;;;;;;;;5108471;28;19951;-65
2022/05/25 01:54:58;;;;;;;;;;;;;;;;;;5126718;28;19919;-65
2022/05/25 01:57:24;;;;;;;;;;;;;;;;;;5126701;28;19925;-65
2022/05/25 01:59:50;;;;;;;;;;;;;;;;;;5124121;28;19919;-64
2022/05/25 02:05:01;;;;;;;;;;;;;;;;;;5126614;28;19931;-65
2022/05/25 02:07:27;;;;;;;;;;;;;;;;;;5126455;28;19920;-65
2022/05/25 02:09:54;;;;;;;;;;;;;;;;;;5126218;28;20560;-65
2022/05/25 02:12:20;;;;;;;;;;;;;;;;;;5126556;28;19919;-65
2022/05/25 02:14:46;;;;;;;;;;;;;;;;;;5126429;28;19942;-65
2022/05/25 02:17:12;;;;;;;;;;;;;;;;;;5124877;28;19926;-65
2022/05/25 02:19:38;;;;;;;;;;;;;;;;;;5126499;28;19920;-65
2022/05/25 02:22:04;;;;;;;;;;;;;;;;;;5126388;28;19986;-65
2022/05/25 02:24:30;;;;;;;;;;;;;;;;;;5123816;28;19924;-65
2022/05/25 02:26:56;;;;;;;;;;;;;;;;;;5066982;28;19932;-66
2022/05/25 02:29:22;;;;;;;;;;;;;;;;;;5085482;28;19927;-65
2022/05/25 02:31:48;;;;;;;;;;;;;;;;;;5085435;28;19925;-66
2022/05/25 02:34:16;;;;;;;;;;;;;;;;;;5090748;28;20371;-66
2022/05/25 02:36:42;;;;;;;;;;;;;;;;;;5107782;28;19924;-65
2022/05/25 02:39:07;;;;;;;;;;;;;;;;;;5125867;28;19920;-65
2022/05/25 02:41:33;;;;;;;;;;;;;;;;;;5126005;28;19927;-65
2022/05/25 02:43:59;;;;;;;;;;;;;;;;;;5125868;28;19920;-65
2022/05/25 02:46:25;;;;;;;;;;;;;;;;;;5125861;28;20314;-65
2022/05/25 02:48:51;;;;;;;;;;;;;;;;;;5125833;28;19955;-66
2022/05/25 02:51:17;;;;;;;;;;;;;;;;;;5125212;28;19969;-66
2022/05/25 02:53:43;;;;;;;;;;;;;;;;;;5124028;28;20398;-66
2022/05/25 02:56:09;;;;;;;;;;;;;;;;;;5125707;28;19919;-66
2022/05/25 02:58:35;;;;;;;;;;;;;;;;;;5125908;28;19965;-65
2022/05/25 03:01:01;;;;;;;;;;;;;;;;;;5125846;28;19929;-66
2022/05/25 03:03:28;;;;;;;;;;;;;;;;;;5125564;28;19920;-65
2022/05/25 03:05:54;;;;;;;;;;;;;;;;;;5107339;28;19919;-65
2022/05/25 03:08:20;;;;;;;;;;;;;;;;;;5125694;28;19919;-65
2022/05/25 03:10:47;;;;;;;;;;;;;;;;;;5123854;28;19926;-65
2022/05/25 03:13:13;;;;;;;;;;;;;;;;;;5125843;28;19920;-65
2022/05/25 03:15:39;;;;;;;;;;;;;;;;;;5125508;28;19920;-65
2022/05/25 03:18:05;;;;;;;;;;;;;;;;;;5124610;28;20358;-65
2022/05/25 03:20:31;;;;;;;;;;;;;;;;;;5125713;28;19924;-65
2022/05/25 03:22:57;;;;;;;;;;;;;;;;;;5125281;28;20283;-65
2022/05/25 03:25:23;;;;;;;;;;;;;;;;;;5123489;28;19937;-65
2022/05/25 03:27:49;;;;;;;;;;;;;;;;;;5125538;28;19990;-65
2022/05/25 03:30:15;;;;;;;;;;;;;;;;;;5125447;28;19958;-65
2022/05/25 03:32:41;;;;;;;;;;;;;;;;;;5106866;28;19928;-65
2022/05/25 03:35:07;;;;;;;;;;;;;;;;;;5125521;28;19919;-65
2022/05/25 03:37:33;;;;;;;;;;;;;;;;;;5127741;28;19919;-65
2022/05/25 03:39:59;;;;;;;;;;;;;;;;;;5129443;28;20007;-65
2022/05/25 03:42:25;;;;;;;;;;;;;;;;;;5110938;28;19926;-65
2022/05/25 03:44:51;;;;;;;;;;;;;;;;;;5127997;28;19923;-65
2022/05/25 03:47:17;;;;;;;;;;;;;;;;;;5129372;28;19923;-64
2022/05/25 03:49:43;;;;;;;;;;;;;;;;;;5110945;28;19920;-65
2022/05/25 03:52:10;;;;;;;;;;;;;;;;;;5129280;28;19920;-65
2022/05/25 03:54:36;;;;;;;;;;;;;;;;;;5128874;28;19927;-64
2022/05/25 03:57:02;;;;;;;;;;;;;;;;;;5129175;28;19919;-66
2022/05/25 03:59:28;;;;;;;;;;;;;;;;;;5129201;28;20012;-66
2022/05/25 04:01:54;;;;;;;;;;;;;;;;;;5128899;28;19942;-66
2022/05/25 04:04:20;;;;;;;;;;;;;;;;;;5128779;28;19981;-64
2022/05/25 04:06:46;;;;;;;;;;;;;;;;;;5124934;28;19919;-65
2022/05/25 04:09:12;;;;;;;;;;;;;;;;;;5128809;28;19919;-66
2022/05/25 04:11:38;;;;;;;;;;;;;;;;;;5128906;28;19924;-66
2022/05/25 04:14:04;;;;;;;;;;;;;;;;;;5128615;28;20446;-66
2022/05/25 04:16:31;;;;;;;;;;;;;;;;;;5128698;28;19920;-65
2022/05/25 04:18:57;;;;;;;;;;;;;;;;;;5128840;28;19942;-65
2022/05/25 04:21:23;;;;;;;;;;;;;;;;;;5128586;28;19986;-65
2022/05/25 04:23:49;;;;;;;;;;;;;;;;;;5128197;28;19924;-66
2022/05/25 04:26:15;;;;;;;;;;;;;;;;;;5126920;28;19924;-65
2022/05/25 04:28:41;;;;;;;;;;;;;;;;;;5128566;28;19928;-66
2022/05/25 04:31:07;;;;;;;;;;;;;;;;;;5128442;28;20014;-66
2022/05/25 04:33:35;;;;;;;;;;;;;;;;;;5128235;28;19920;-66
2022/05/25 04:36:01;;;;;;;;;;;;;;;;;;5128344;28;20080;-66
2022/05/25 04:38:27;;;;;;;;;;;;;;;;;;5128469;28;20023;-65
2022/05/25 04:40:52;;;;;;;;;;;;;;;;;;5128159;28;20363;-66
2022/05/25 04:43:18;;;;;;;;;;;;;;;;;;5128145;28;19959;-66
2022/05/25 04:45:44;;;;;;;;;;;;;;;;;;5128089;28;19920;-66
2022/05/25 04:48:12;;;;;;;;;;;;;;;;;;5127033;28;19941;-66
2022/05/25 04:50:41;;;;;;;;;;;;;;;;;;5125490;28;19973;-66
2022/05/25 04:53:07;;;;;;;;;;;;;;;;;;5127932;28;19920;-65
2022/05/25 04:58:18;;;;;;;;;;;;;;;;;;5127735;28;19927;-66
2022/05/25 05:00:44;;;;;;;;;;;;;;;;;;5127939;28;20058;-66
2022/05/25 05:03:10;;;;;;;;;;;;;;;;;;5127541;28;19919;-66
2022/05/25 05:05:36;;;;;;;;;;;;;;;;;;5127771;28;19920;-66
2022/05/25 05:08:02;;;;;;;;;;;;;;;;;;5127828;28;19919;-65
2022/05/25 05:10:28;;;;;;;;;;;;;;;;;;5100387;28;19939;-66
2022/05/25 05:12:54;;;;;;;;;;;;;;;;;;5098717;28;19920;-65
2022/05/25 05:15:21;;;;;;;;;;;;;;;;;;5101955;28;19974;-65
2022/05/25 05:17:47;;;;;;;;;;;;;;;;;;5100758;28;19920;-65
2022/05/25 05:20:13;;;;;;;;;;;;;;;;;;5103939;28;19984;-66
2022/05/25 05:22:39;;;;;;;;;;;;;;;;;;5114519;28;19926;-66
2022/05/25 05:25:05;;;;;;;;;;;;;;;;;;5120755;28;19926;-65
2022/05/25 05:27:31;;;;;;;;;;;;;;;;;;5109384;28;19928;-66
2022/05/25 05:29:57;;;;;;;;;;;;;;;;;;5099605;28;19920;-66
2022/05/25 05:32:23;;;;;;;;;;;;;;;;;;5101204;28;19924;-66
2022/05/25 05:34:48;;;;;;;;;;;;;;;;;;5100603;28;19920;-66
2022/05/25 05:37:15;;;;;;;;;;;;;;;;;;5109153;28;19924;-66
2022/05/25 05:39:41;;;;;;;;;;;;;;;;;;5103355;28;19928;-66
2022/05/25 05:42:07;;;;;;;;;;;;;;;;;;5104525;28;19930;-65
2022/05/25 05:44:33;;;;;;;;;;;;;;;;;;5106882;28;19919;-66
2022/05/25 05:46:59;;;;;;;;;;;;;;;;;;5104907;28;19924;-66
2022/05/25 05:49:25;;;;;;;;;;;;;;;;;;5105365;28;19919;-66
2022/05/25 05:51:51;;;;;;;;;;;;;;;;;;5103287;28;19928;-66
2022/05/25 05:54:17;;;;;;;;;;;;;;;;;;5105889;28;19920;-66
2022/05/25 05:56:43;;;;;;;;;;;;;;;;;;5085085;28;20553;-66
2022/05/25 05:59:09;;;;;;;;;;;;;;;;;;5105780;28;19926;-67
2022/05/25 06:01:35;;;;;;;;;;;;;;;;;;5094009;28;20304;-67
2022/05/25 06:04:01;;;;;;;;;;;;;;;;;;5104175;28;19942;-66
2022/05/25 06:06:26;;;;;;;;;;;;;;;;;;5112419;27;20308;-67
2022/05/25 06:08:52;;;;;;;;;;;;;;;;;;5104071;28;19920;-67
2022/05/25 06:11:18;;;;;;;;;;;;;;;;;;5104444;28;20028;-66
2022/05/25 06:13:44;;;;;;;;;;;;;;;;;;5084011;28;19927;-67
2022/05/25 06:19:26;;;;;;;;;;;;;;;;;;5089211;28;19934;-67
2022/05/25 06:21:53;;;;;;;;;;;;;;;;;;5105025;28;19984;-66
2022/05/25 06:24:19;;;;;;;;;;;;;;;;;;5099406;28;20343;-67
2022/05/25 06:26:45;;;;;;;;;;;;;;;;;;5102813;28;19958;-67
2022/05/25 06:29:11;;;;;;;;;;;;;;;;;;5101847;28;20129;-66
2022/05/25 06:31:37;;;;;;;;;;;;;;;;;;5101254;28;19923;-68
2022/05/25 06:34:03;;;;;;;;;;;;;;;;;;5098839;28;21154;-67
2022/05/25 06:36:29;;;;;;;;;;;;;;;;;;5098016;28;20018;-67
2022/05/25 06:38:55;;;;;;;;;;;;;;;;;;5106567;28;19994;-67
2022/05/25 06:41:21;;;;;;;;;;;;;;;;;;5104590;28;19928;-66
2022/05/25 06:43:47;;;;;;;;;;;;;;;;;;5106030;28;19930;-66
2022/05/25 06:46:13;;;;;;;;;;;;;;;;;;5105737;28;19959;-66
2022/05/25 06:48:39;;;;;;;;;;;;;;;;;;5105311;28;19927;-65
2022/05/25 06:51:05;;;;;;;;;;;;;;;;;;5102941;28;20493;-66
2022/05/25 06:53:31;;;;;;;;;;;;;;;;;;5096483;28;19928;-66
2022/05/25 06:55:57;;;;;;;;;;;;;;;;;;5107380;28;19963;-67
2022/05/25 06:58:23;;;;;;;;;;;;;;;;;;5082463;28;20019;-67
2022/05/25 07:00:49;;;;;;;;;;;;;;;;;;5095975;28;20165;-67
2022/05/25 07:03:15;;;;;;;;;;;;;;;;;;5106303;28;19928;-67
2022/05/25 07:05:41;;;;;;;;;;;;;;;;;;5102340;28;19920;-67
2022/05/25 07:08:07;;;;;;;;;;;;;;;;;;5105375;28;19924;-67
2022/05/25 07:10:33;;;;;;;;;;;;;;;;;;5101715;28;19962;-67
2022/05/25 07:12:59;;;;;;;;;;;;;;;;;;5112679;28;19919;-66
2022/05/25 07:15:25;;;;;;;;;;;;;;;;;;5110916;28;19924;-66
2022/05/25 07:17:51;;;;;;;;;;;;;;;;;;5112772;28;20004;-67
2022/05/25 07:20:17;;;;;;;;;;;;;;;;;;5091441;28;19936;-66
2022/05/25 07:22:43;;;;;;;;;;;;;;;;;;5113116;28;20261;-66
2022/05/25 07:25:09;;;;;;;;;;;;;;;;;;5109527;28;20753;-66
2022/05/25 07:27:35;;;;;;;;;;;;;;;;;;5110134;28;19927;-67
2022/05/25 07:30:01;;;;;;;;;;;;;;;;;;5114988;28;19920;-66
2022/05/25 07:32:27;;;;;;;;;;;;;;;;;;5110890;28;20207;-67
2022/05/25 07:34:54;;;;;;;;;;;;;;;;;;5109382;28;20177;-66
2022/05/25 07:37:21;;;;;;;;;;;;;;;;;;5111159;28;19995;-67
2022/05/25 07:39:47;;;;;;;;;;;;;;;;;;5110737;28;19920;-67
2022/05/25 07:42:13;;;;;;;;;;;;;;;;;;5091716;28;19927;-67
2022/05/25 07:44:39;;;;;;;;;;;;;;;;;;5110796;28;19975;-66
2022/05/25 07:47:05;;;;;;;;;;;;;;;;;;5112248;28;19982;-67
2022/05/25 07:49:31;;;;;;;;;;;;;;;;;;5106583;28;19930;-67
2022/05/25 07:51:57;;;;;;;;;;;;;;;;;;5110833;28;19966;-67
2022/05/25 07:54:23;;;;;;;;;;;;;;;;;;5108372;28;19954;-67
2022/05/25 07:56:49;;;;;;;;;;;;;;;;;;5109513;28;19927;-66
2022/05/25 07:59:15;;;;;;;;;;;;;;;;;;5106757;28;19920;-66
2022/05/25 08:07:11;;;;;;;;;;;;;;;;;;5105039;28;19985;-66
2022/05/25 08:09:37;;;;;;;;;;;;;;;;;;5126630;28;19919;-66
2022/05/25 08:12:03;;;;;;;;;;;;;;;;;;5114429;28;19927;-66
2022/05/25 08:14:29;;;;;;;;;;;;;;;;;;5131936;28;20356;-66
2022/05/25 08:16:55;;;;;;;;;;;;;;;;;;5128007;28;19959;-66
2022/05/25 08:19:21;;;;;;;;;;;;;;;;;;5111170;28;19921;-67
2022/05/25 08:21:47;;;;;;;;;;;;;;;;;;5107729;28;19920;-67
2022/05/25 08:24:13;;;;;;;;;;;;;;;;;;5103642;28;19946;-67
2022/05/25 08:26:39;;;;;;;;;;;;;;;;;;5127000;28;19963;-67
2022/05/25 08:29:05;;;;;;;;;;;;;;;;;;5128504;28;20294;-67
2022/05/25 08:31:31;;;;;;;;;;;;;;;;;;5128230;28;19924;-66
2022/05/25 08:33:57;;;;;;;;;;;;;;;;;;5128323;28;19920;-67
2022/05/25 08:36:23;;;;;;;;;;;;;;;;;;5128356;28;19919;-66
2022/05/25 08:38:52;;;;;;;;;;;;;;;;;;5110004;28;19920;-67
2022/05/25 08:41:18;;;;;;;;;;;;;;;;;;5128208;28;20270;-67
2022/05/25 08:43:44;;;;;;;;;;;;;;;;;;5128093;28;19920;-67
2022/05/25 08:46:14;;;;;;;;;;;;;;;;;;5128063;28;20287;-67
2022/05/25 08:48:40;;;;;;;;;;;;;;;;;;5128078;28;19919;-67
2022/05/25 08:51:06;;;;;;;;;;;;;;;;;;5128141;28;19920;-68
2022/05/25 08:53:33;;;;;;;;;;;;;;;;;;5128286;28;19923;-67
2022/05/25 08:55:59;;;;;;;;;;;;;;;;;;5128025;28;19920;-67
2022/05/25 08:58:25;;;;;;;;;;;;;;;;;;5128063;28;20326;-67
2022/05/25 09:00:51;;;;;;;;;;;;;;;;;;5127895;28;19991;-67
2022/05/25 09:03:17;;;;;;;;;;;;;;;;;;5127732;28;19970;-68
2022/05/25 09:05:43;;;;;;;;;;;;;;;;;;5127520;28;19920;-67
2022/05/25 09:08:09;;;;;;;;;;;;;;;;;;5127825;28;20002;-67
2022/05/25 09:10:35;;;;;;;;;;;;;;;;;;5126581;28;19981;-67
2022/05/25 09:13:01;;;;;;;;;;;;;;;;;;5127753;28;19930;-67
2022/05/25 09:15:27;;;;;;;;;;;;;;;;;;5127486;28;19967;-67
2022/05/25 09:17:53;;;;;;;;;;;;;;;;;;5127783;28;19919;-68
2022/05/25 09:20:19;;;;;;;;;;;;;;;;;;5127593;28;20049;-67
2022/05/25 09:22:45;;;;;;;;;;;;;;;;;;5127401;28;20383;-68
2022/05/25 09:25:11;;;;;;;;;;;;;;;;;;5127363;28;19991;-68
2022/05/25 09:27:37;;;;;;;;;;;;;;;;;;5127271;28;19958;-68
2022/05/25 09:30:03;;;;;;;;;;;;;;;;;;5127422;28;19963;-67
2022/05/25 09:32:29;;;;;;;;;;;;;;;;;;5127444;28;19962;-68
2022/05/25 09:34:55;;;;;;;;;;;;;;;;;;5126651;28;20303;-69
2022/05/25 09:37:21;;;;;;;;;;;;;;;;;;5127303;28;19923;-67
2022/05/25 09:39:47;;;;;;;;;;;;;;;;;;5127047;28;19941;-68
2022/05/25 09:42:13;;;;;;;;;;;;;;;;;;5127229;28;19920;-68
2022/05/25 09:44:39;;;;;;;;;;;;;;;;;;5126976;28;19945;-68
2022/05/25 09:47:05;;;;;;;;;;;;;;;;;;5126983;28;19926;-68
2022/05/25 09:49:31;;;;;;;;;;;;;;;;;;5127198;28;20329;-68
2022/05/25 09:51:57;;;;;;;;;;;;;;;;;;5126894;28;20032;-67
2022/05/25 09:54:26;;;;;;;;;;;;;;;;;;5126869;28;19920;-68
2022/05/25 09:56:52;;;;;;;;;;;;;;;;;;5126908;28;19934;-68
2022/05/25 09:59:18;;;;;;;;;;;;;;;;;;5126826;28;19923;-68
2022/05/25 10:01:44;;;;;;;;;;;;;;;;;;5126912;28;19927;-68
2022/05/25 10:04:10;;;;;;;;;;;;;;;;;;5126453;28;19919;-68
2022/05/25 10:06:38;;;;;;;;;;;;;;;;;;5126600;28;20238;-68
2022/05/25 10:09:04;;;;;;;;;;;;;;;;;;5126545;28;19927;-70
2022/05/25 10:11:33;;;;;;;;;;;;;;;;;;5126569;28;19927;-70
2022/05/25 10:13:59;;;;;;;;;;;;;;;;;;5126578;28;20363;-69
2022/05/25 10:16:25;;;;;;;;;;;;;;;;;;5126451;28;19919;-69
2022/05/25 10:18:51;;;;;;;;;;;;;;;;;;5126379;28;19930;-69
2022/05/25 10:21:17;;;;;;;;;;;;;;;;;;5126381;28;19930;-69
2022/05/25 10:23:43;;;;;;;;;;;;;;;;;;5126344;28;19919;-68
2022/05/25 10:26:09;;;;;;;;;;;;;;;;;;5126150;28;19969;-68
2022/05/25 10:28:35;;;;;;;;;;;;;;;;;;5126257;28;19919;-68
2022/05/25 10:36:47;;;;;;;;;;;;;;;;;;5126187;28;19933;-68
2022/05/25 10:39:13;;;;;;;;;;;;;;;;;;5125882;28;19919;-68
2022/05/25 10:41:41;;;;;;;;;;;;;;;;;;5126329;28;19942;-69
2022/05/25 10:44:07;;;;;;;;;;;;;;;;;;5125788;28;20367;-68
2022/05/25 10:46:33;;;;;;;;;;;;;;;;;;5125386;28;19920;-68
2022/05/25 10:48:59;;;;;;;;;;;;;;;;;;5126037;28;19919;-69
2022/05/25 10:51:25;;;;;;;;;;;;;;;;;;5125716;28;19919;-69
2022/05/25 10:56:37;;;;;;;;;;;;;;;;;;5076404;28;19920;-69
2022/05/25 10:59:03;;;;;;;;;;;;;;;;;;5125756;28;19919;-68
2022/05/25 11:01:29;;;;;;;;;;;;;;;;;;5125932;28;19919;-69
2022/05/25 11:03:55;;;;;;;;;;;;;;;;;;5107301;28;20003;-69
2022/05/25 11:06:21;;;;;;;;;;;;;;;;;;5125665;28;20001;-68
2022/05/25 11:08:47;;;;;;;;;;;;;;;;;;5125729;28;19919;-70
2022/05/25 11:11:13;;;;;;;;;;;;;;;;;;5125477;28;19919;-67
2022/05/25 11:13:39;;;;;;;;;;;;;;;;;;5125449;28;19920;-73
2022/05/25 11:16:06;;;;;;;;;;;;;;;;;;5125693;28;19927;-75
2022/05/25 11:18:32;;;;;;;;;;;;;;;;;;5125683;28;19923;-75
2022/05/25 11:20:58;;;;;;;;;;;;;;;;;;5125602;28;19919;-75
2022/05/25 11:23:24;;;;;;;;;;;;;;;;;;5125601;28;19965;-74
2022/05/25 11:25:50;;;;;;;;;;;;;;;;;;5125344;28;20378;-75
2022/05/25 11:28:16;;;;;;;;;;;;;;;;;;5125465;28;19951;-74
2022/05/25 11:30:42;;;;;;;;;;;;;;;;;;5125502;28;19919;-74
2022/05/25 11:33:08;;;;;;;;;;;;;;;;;;5125408;28;19982;-72
2022/05/25 11:35:34;;;;;;;;;;;;;;;;;;5125330;28;19961;-74
2022/05/25 11:38:00;;;;;;;;;;;;;;;;;;5125364;28;19919;-73
2022/05/25 11:40:26;;;;;;;;;;;;;;;;;;5125172;28;19927;-73
2022/05/25 11:42:52;;;;;;;;;;;;;;;;;;5125230;28;19923;-73
2022/05/25 11:45:18;;;;;;;;;;;;;;;;;;5125319;28;19996;-72
2022/05/25 11:47:44;;;;;;;;;;;;;;;;;;5125335;28;20041;-72
2022/05/25 11:50:11;;;;;;;;;;;;;;;;;;5125267;28;20397;-72
2022/05/25 11:52:37;;;;;;;;;;;;;;;;;;5125295;28;19926;-72
2022/05/25 11:55:03;;;;;;;;;;;;;;;;;;5125159;28;19924;-72
2022/05/25 11:57:29;;;;;;;;;;;;;;;;;;5107626;28;19963;-71
2022/05/25 11:59:55;;;;;;;;;;;;;;;;;;5129332;28;19920;-70
2022/05/25 12:02:21;;;;;;;;;;;;;;;;;;5129026;28;19919;-71
2022/05/25 12:04:48;;;;;;;;;;;;;;;;;;5128805;28;20405;-71
2022/05/25 12:07:14;;;;;;;;;;;;;;;;;;5128828;28;19930;-70
2022/05/25 12:09:40;;;;;;;;;;;;;;;;;;5128875;28;19920;-69
2022/05/25 12:12:07;;;;;;;;;;;;;;;;;;5128894;28;19923;-69
2022/05/25 12:14:36;;;;;;;;;;;;;;;;;;5129191;28;19919;-69
2022/05/25 12:17:02;;;;;;;;;;;;;;;;;;5128859;28;19927;-70
2022/05/25 12:19:28;;;;;;;;;;;;;;;;;;5128725;28;19927;-69
2022/05/25 12:21:54;;;;;;;;;;;;;;;;;;5128874;28;19916;-69
2022/05/25 12:24:20;;;;;;;;;;;;;;;;;;5128595;28;19926;-68
2022/05/25 12:26:46;;;;;;;;;;;;;;;;;;5128575;28;19959;-68
2022/05/25 12:29:12;;;;;;;;;;;;;;;;;;5128563;28;20295;-68
2022/05/25 12:31:38;;;;;;;;;;;;;;;;;;5128461;28;19926;-69
2022/05/25 12:34:04;;;;;;;;;;;;;;;;;;5128394;28;19927;-68
2022/05/25 12:36:30;;;;;;;;;;;;;;;;;;5110103;28;19920;-68
2022/05/25 12:38:56;;;;;;;;;;;;;;;;;;5128347;28;19920;-68
2022/05/25 12:41:22;;;;;;;;;;;;;;;;;;5127991;28;19935;-68
2022/05/25 12:43:48;;;;;;;;;;;;;;;;;;5127938;28;20367;-68
2022/05/25 12:48:58;;;;;;;;;;;;;;;;;;5128071;28;19927;-68
2022/05/25 12:51:24;;;;;;;;;;;;;;;;;;5128078;28;19919;-68
2022/05/25 12:53:50;;;;;;;;;;;;;;;;;;5128021;28;20369;-67
2022/05/25 12:56:16;;;;;;;;;;;;;;;;;;5127813;28;19951;-68
2022/05/25 12:58:42;;;;;;;;;;;;;;;;;;5127850;28;19926;-68
2022/05/25 13:01:08;;;;;;;;;;;;;;;;;;5127680;28;19926;-69
2022/05/25 13:03:35;;;;;;;;;;;;;;;;;;5127547;28;19920;-69
2022/05/25 13:06:02;;;;;;;;;;;;;;;;;;5127482;28;19927;-68
2022/05/25 13:08:28;;;;;;;;;;;;;;;;;;5127660;28;19923;-67
2022/05/25 13:10:54;;;;;;;;;;;;;;;;;;5126602;28;19975;-69
2022/05/25 13:13:20;;;;;;;;;;;;;;;;;;5127665;28;19926;-67
2022/05/25 13:15:46;;;;;;;;;;;;;;;;;;5127505;28;20018;-67
2022/05/25 13:18:12;;;;;;;;;;;;;;;;;;5127597;28;19920;-67
2022/05/25 13:20:47;;;;;;;;;;;;;;;;;;5127368;28;20006;-67
2022/05/25 13:23:13;;;;;;;;;;;;;;;;;;5127120;28;19926;-67
2022/05/25 13:25:39;;;;;;;;;;;;;;;;;;5127135;28;19971;-67
2022/05/25 13:28:09;;;;;;;;;;;;;;;;;;5127381;28;19951;-68
2022/05/25 13:30:35;;;;;;;;;;;;;;;;;;5127066;28;19920;-68
2022/05/25 13:33:01;;;;;;;;;;;;;;;;;;5126676;28;19923;-68
2022/05/25 13:35:27;;;;;;;;;;;;;;;;;;5126862;28;19920;-67
2022/05/25 13:37:54;;;;;;;;;;;;;;;;;;5127118;28;19920;-67
2022/05/25 13:40:20;;;;;;;;;;;;;;;;;;5125512;28;19927;-67
2022/05/25 13:42:46;;;;;;;;;;;;;;;;;;5126944;28;19919;-67
2022/05/25 13:45:11;;;;;;;;;;;;;;;;;;5126701;28;19930;-68
2022/05/25 13:47:37;;;;;;;;;;;;;;;;;;5127077;28;19927;-68
2022/05/25 13:50:04;;;;;;;;;;;;;;;;;;5126913;28;19919;-68
2022/05/25 13:52:30;;;;;;;;;;;;;;;;;;5126813;28;19919;-68
2022/05/25 13:54:56;;;;;;;;;;;;;;;;;;5108346;28;19966;-67
2022/05/25 13:57:22;;;;;;;;;;;;;;;;;;5126729;28;19945;-67
2022/05/25 13:59:48;;;;;;;;;;;;;;;;;;5126624;28;19923;-68
2022/05/25 14:02:14;;;;;;;;;;;;;;;;;;5126658;28;19919;-67
2022/05/25 14:04:40;;;;;;;;;;;;;;;;;;5126422;28;19919;-67
2022/05/25 14:07:06;;;;;;;;;;;;;;;;;;5126478;28;19931;-68
2022/05/25 14:12:18;;;;;;;;;;;;;;;;;;5126436;28;20271;-67
2022/05/25 14:14:44;;;;;;;;;;;;;;;;;;5126472;28;19920;-67
2022/05/25 14:17:10;;;;;;;;;;;;;;;;;;5126536;28;19927;-67
2022/05/25 14:19:37;;;;;;;;;;;;;;;;;;5126436;28;19927;-67
2022/05/25 14:22:04;;;;;;;;;;;;;;;;;;5126213;28;19915;-67
2022/05/25 14:24:30;;;;;;;;;;;;;;;;;;5126036;28;19926;-67
2022/05/25 14:26:56;;;;;;;;;;;;;;;;;;5126076;28;19920;-67
2022/05/25 14:29:22;;;;;;;;;;;;;;;;;;5126187;28;19919;-67
2022/05/25 14:31:48;;;;;;;;;;;;;;;;;;5126148;28;20343;-67
2022/05/25 14:34:14;;;;;;;;;;;;;;;;;;5126015;28;19931;-67
2022/05/25 14:36:40;;;;;;;;;;;;;;;;;;5126175;28;19927;-67
2022/05/25 14:39:06;;;;;;;;;;;;;;;;;;5126026;28;19942;-68
2022/05/25 14:41:33;;;;;;;;;;;;;;;;;;5125745;28;19920;-67
2022/05/25 14:43:59;;;;;;;;;;;;;;;;;;5125836;28;19926;-67
2022/05/25 14:46:25;;;;;;;;;;;;;;;;;;5125890;28;19924;-67
2022/05/25 14:48:53;;;;;;;;;;;;;;;;;;5125894;28;19995;-68
2022/05/25 14:51:19;;;;;;;;;;;;;;;;;;5125726;28;19920;-68
2022/05/25 14:53:45;;;;;;;;;;;;;;;;;;5125871;28;19920;-68
2022/05/25 14:56:11;;;;;;;;;;;;;;;;;;5125609;28;20191;-67
2022/05/25 14:58:37;;;;;;;;;;;;;;;;;;5125728;28;20462;-67
2022/05/25 15:01:03;;;;;;;;;;;;;;;;;;5125621;28;19916;-67
2022/05/25 15:03:29;;;;;;;;;;;;;;;;;;5125603;28;19927;-67
2022/05/25 15:05:55;;;;;;;;;;;;;;;;;;5125441;28;19927;-67
2022/05/25 15:08:21;;;;;;;;;;;;;;;;;;5125591;28;19923;-68
2022/05/25 15:10:47;;;;;;;;;;;;;;;;;;5125425;28;19920;-68
2022/05/25 15:13:13;;;;;;;;;;;;;;;;;;5125588;28;19963;-68
2022/05/25 15:18:30;;;;;;;;;;;;;;;;;;5125492;28;19966;-68
2022/05/25 15:20:56;;;;;;;;;;;;;;;;;;5125394;28;19920;-68
2022/05/25 15:23:22;;;;;;;;;;;;;;;;;;5125303;28;19920;-67
2022/05/25 15:25:48;;;;;;;;;;;;;;;;;;5125457;28;19958;-69
2022/05/25 15:28:14;;;;;;;;;;;;;;;;;;5125399;28;19927;-70
2022/05/25 15:30:41;;;;;;;;;;;;;;;;;;5125445;28;19919;-69
2022/05/25 15:33:08;;;;;;;;;;;;;;;;;;5108425;28;19919;-69
2022/05/25 15:35:34;;;;;;;;;;;;;;;;;;5129528;28;20227;-69
2022/05/25 15:38:00;;;;;;;;;;;;;;;;;;5129379;28;19995;-69
2022/05/25 15:40:26;;;;;;;;;;;;;;;;;;5129436;28;19920;-68
2022/05/25 15:42:52;;;;;;;;;;;;;;;;;;5129353;28;20485;-68
2022/05/25 15:45:19;;;;;;;;;;;;;;;;;;5129249;28;19920;-69
2022/05/25 15:47:45;;;;;;;;;;;;;;;;;;5129429;28;20234;-69
2022/05/25 15:50:11;;;;;;;;;;;;;;;;;;5129299;28;20174;-69
2022/05/25 15:52:37;;;;;;;;;;;;;;;;;;5129046;28;19978;-69
2022/05/25 15:55:03;;;;;;;;;;;;;;;;;;5128999;28;20409;-69
2022/05/25 15:57:29;;;;;;;;;;;;;;;;;;5129229;28;19928;-69
2022/05/25 15:59:55;;;;;;;;;;;;;;;;;;5129082;28;19923;-70
2022/05/25 16:02:21;;;;;;;;;;;;;;;;;;5129075;28;19994;-69
2022/05/25 16:04:47;;;;;;;;;;;;;;;;;;5128810;28;19920;-68
2022/05/25 16:07:13;;;;;;;;;;;;;;;;;;5128649;28;19919;-69
2022/05/25 16:09:39;;;;;;;;;;;;;;;;;;5128805;28;20032;-69
2022/05/25 16:12:05;;;;;;;;;;;;;;;;;;5128948;28;19919;-70
2022/05/25 16:14:32;;;;;;;;;;;;;;;;;;5125336;28;19923;-70
2022/05/25 16:16:58;;;;;;;;;;;;;;;;;;5107760;28;19942;-70
2022/05/25 16:19:25;;;;;;;;;;;;;;;;;;5108056;28;19920;-70
2022/05/25 16:21:51;;;;;;;;;;;;;;;;;;5106563;28;20337;-69
2022/05/25 16:24:17;;;;;;;;;;;;;;;;;;5106687;28;19920;-70
2022/05/25 16:26:43;;;;;;;;;;;;;;;;;;5108673;28;19955;-69
2022/05/25 16:29:09;;;;;;;;;;;;;;;;;;5094497;28;19973;-69
2022/05/25 16:31:36;;;;;;;;;;;;;;;;;;5098388;28;20002;-68
2022/05/25 16:34:02;;;;;;;;;;;;;;;;;;5106943;28;19920;-69
2022/05/25 16:36:28;;;;;;;;;;;;;;;;;;5106891;28;20391;-69
2022/05/25 16:38:55;;;;;;;;;;;;;;;;;;5105152;28;19919;-69
2022/05/25 16:41:21;;;;;;;;;;;;;;;;;;5096733;28;19972;-69
2022/05/25 16:43:47;;;;;;;;;;;;;;;;;;5113636;28;19959;-68
2022/05/25 16:46:13;;;;;;;;;;;;;;;;;;5112876;28;20010;-69
2022/05/25 16:48:39;;;;;;;;;;;;;;;;;;5108932;28;20237;-69
2022/05/25 16:51:05;;;;;;;;;;;;;;;;;;5112068;28;19928;-69
2022/05/25 16:53:34;;;;;;;;;;;;;;;;;;5111970;28;19939;-69
2022/05/25 16:56:00;;;;;;;;;;;;;;;;;;5111852;28;19947;-69
2022/05/25 16:58:26;;;;;;;;;;;;;;;;;;5108424;28;19928;-69
2022/05/25 17:00:52;;;;;;;;;;;;;;;;;;5104078;28;19930;-68
2022/05/25 17:03:19;;;;;;;;;;;;;;;;;;5103208;28;19928;-69
2022/05/25 17:05:45;;;;;;;;;;;;;;;;;;5103737;28;19920;-68
2022/05/25 17:08:11;;;;;;;;;;;;;;;;;;5105989;28;19920;-69